createdAt,value
2019-05-17T00:00:37.108Z,8.10
2019-05-17T00:03:06.612Z,7.93
2019-05-17T00:05:33.120Z,7.60
2019-05-17T00:08:00.478Z,8.00
2019-05-17T00:10:27.800Z,7.57
2019-05-17T00:12:56.389Z,8.90
2019-05-17T00:15:23.946Z,7.87
2019-05-17T00:17:52.444Z,8.03
2019-05-17T00:20:19.776Z,7.90
2019-05-17T00:22:47.348Z,8.07
2019-05-17T00:25:16.691Z,7.67
2019-05-17T00:27:44.412Z,7.80
2019-05-17T00:30:12.036Z,7.43
2019-05-17T00:32:39.346Z,8.67
2019-05-17T00:35:07.594Z,7.57
2019-05-17T00:37:37.180Z,8.33
2019-05-17T00:40:07.157Z,7.83
2019-05-17T00:42:34.355Z,8.37
2019-05-17T00:45:01.658Z,8.10
2019-05-17T00:47:29.113Z,8.03
2019-05-17T00:49:57.023Z,8.13
2019-05-17T00:52:27.244Z,8.27
2019-05-17T00:54:56.345Z,7.77
2019-05-17T00:57:23.808Z,7.87
2019-05-17T00:59:51.110Z,7.57
2019-05-17T01:02:18.424Z,7.47
2019-05-17T01:04:47.633Z,8.53
2019-05-17T01:07:17.549Z,8.13
2019-05-17T01:09:44.202Z,8.43
2019-05-17T01:12:11.526Z,8.03
2019-05-17T01:14:38.852Z,7.60
2019-05-17T01:17:07.172Z,7.87
2019-05-17T01:19:36.540Z,7.77
2019-05-17T01:22:04.058Z,8.03
2019-05-17T01:24:31.472Z,7.97
2019-05-17T01:26:58.836Z,8.47
2019-05-17T01:29:26.820Z,8.47
2019-05-17T01:31:56.951Z,7.67
2019-05-17T01:34:27.079Z,7.97
2019-05-17T01:36:54.294Z,8.50
2019-05-17T01:39:21.686Z,8.30
2019-05-17T01:41:49.220Z,7.67
2019-05-17T01:44:16.851Z,8.57
2019-05-17T01:46:46.310Z,8.27
2019-05-17T01:49:13.591Z,9.10
2019-05-17T01:51:40.885Z,7.87
2019-05-17T01:54:08.193Z,10.43
2019-05-17T01:56:36.971Z,8.30
2019-05-17T01:59:06.625Z,9.53
2019-05-17T02:01:33.830Z,8.93
2019-05-17T02:04:01.158Z,7.73
2019-05-17T02:06:29.561Z,7.90
2019-05-17T02:08:56.989Z,7.87
2019-05-17T02:11:26.745Z,7.97
2019-05-17T02:13:53.661Z,8.17
2019-05-17T02:16:20.950Z,7.43
2019-05-17T02:18:48.395Z,7.73
2019-05-17T02:21:16.830Z,8.47
2019-05-17T02:23:46.877Z,8.40
2019-05-17T02:26:13.630Z,7.80
2019-05-17T02:28:41.438Z,7.50
2019-05-17T02:31:08.861Z,8.83
2019-05-17T02:33:38.069Z,8.40
2019-05-17T02:36:05.465Z,7.67
2019-05-17T02:38:33.527Z,7.70
2019-05-17T02:41:03.339Z,7.73
2019-05-17T02:43:33.404Z,7.27
2019-05-17T02:46:03.684Z,7.80
2019-05-17T02:48:33.587Z,7.77
2019-05-17T02:51:03.155Z,7.37
2019-05-17T02:53:29.224Z,7.30
2019-05-17T02:55:56.551Z,7.37
2019-05-17T02:58:23.967Z,7.53
2019-05-17T03:00:53.190Z,7.67
2019-05-17T03:03:23.075Z,8.43
2019-05-17T03:05:53.293Z,7.20
2019-05-17T03:08:19.038Z,10.47
2019-05-17T03:10:46.344Z,7.60
2019-05-17T03:13:17.727Z,7.77
2019-05-17T03:15:43.312Z,7.70
2019-05-17T03:18:13.393Z,10.40
2019-05-17T03:20:42.935Z,7.20
2019-05-17T03:23:12.454Z,7.13
2019-05-17T03:25:38.501Z,8.67
2019-05-17T03:28:05.953Z,8.00
2019-05-17T03:30:36.878Z,8.43
2019-05-17T03:33:07.273Z,8.20
2019-05-17T03:35:37.318Z,8.67
2019-05-17T03:38:04.041Z,8.43
2019-05-17T03:41:01.009Z,7.90
2019-05-17T03:43:02.851Z,10.57
2019-05-17T03:45:33.599Z,8.93
2019-05-17T03:47:59.429Z,8.40
2019-05-17T03:50:26.760Z,8.03
2019-05-17T03:52:54.175Z,7.33
2019-05-17T03:55:23.546Z,8.30
2019-05-17T03:57:53.302Z,8.27
2019-05-17T04:00:23.229Z,8.87
2019-05-17T04:02:53.376Z,7.63
2019-05-17T04:05:22.426Z,8.03
2019-05-17T04:07:48.442Z,8.10
2019-05-17T04:10:15.773Z,8.33
2019-05-17T04:12:44.020Z,8.43
2019-05-17T04:15:13.359Z,8.37
2019-05-17T04:17:43.810Z,8.47
2019-05-17T04:20:13.453Z,8.13
2019-05-17T04:22:43.673Z,8.00
2019-05-17T04:25:13.102Z,9.10
2019-05-17T04:27:38.827Z,8.00
2019-05-17T04:30:06.674Z,8.93
2019-05-17T04:32:34.111Z,9.47
2019-05-17T04:35:03.770Z,8.57
2019-05-17T04:37:33.998Z,8.47
2019-05-17T04:40:03.163Z,8.73
2019-05-17T04:42:29.083Z,9.07
2019-05-17T04:44:56.420Z,10.63
2019-05-17T04:47:23.853Z,9.50
2019-05-17T04:49:53.544Z,8.93
2019-05-17T04:52:22.819Z,9.87
2019-05-17T04:54:53.378Z,8.87
2019-05-17T04:57:19.100Z,9.20
2019-05-17T04:59:46.480Z,10.10
2019-05-17T05:02:13.920Z,10.07
2019-05-17T05:04:43.626Z,9.83
2019-05-17T05:07:13.480Z,9.50
2019-05-17T05:09:42.729Z,9.60
2019-05-17T05:12:12.231Z,9.70
2019-05-17T05:14:38.251Z,8.67
2019-05-17T05:17:05.680Z,8.50
2019-05-17T05:19:34.107Z,9.20
2019-05-17T05:22:04.465Z,8.97
2019-05-17T05:24:31.543Z,9.40
2019-05-17T05:26:58.942Z,8.87
2019-05-17T05:29:26.254Z,10.13
2019-05-17T05:31:53.596Z,8.97
2019-05-17T05:34:21.611Z,10.00
2019-05-17T05:36:49.177Z,9.03
2019-05-17T05:39:16.513Z,8.77
2019-05-17T05:41:43.825Z,9.73
2019-05-17T05:44:12.238Z,9.87
2019-05-17T05:46:41.997Z,9.87
2019-05-17T05:49:09.023Z,10.67
2019-05-17T05:51:36.539Z,9.27
2019-05-17T05:54:03.860Z,8.73
2019-05-17T05:56:32.610Z,9.20
2019-05-17T05:59:02.664Z,9.40
2019-05-17T06:01:29.518Z,9.17
2019-05-17T06:03:57.927Z,10.30
2019-05-17T06:06:25.221Z,9.30
2019-05-17T06:08:52.626Z,9.23
2019-05-17T06:11:21.603Z,9.53
2019-05-17T06:13:49.266Z,9.43
2019-05-17T06:16:16.586Z,9.23
2019-05-17T06:18:45.700Z,9.87
2019-05-17T06:21:13.052Z,9.00
2019-05-17T06:23:42.403Z,11.87
2019-05-17T06:26:12.145Z,8.30
2019-05-17T06:28:38.844Z,9.77
2019-05-17T06:31:07.745Z,7.97
2019-05-17T06:33:35.191Z,9.70
2019-05-17T06:36:02.997Z,9.13
2019-05-17T06:38:32.635Z,10.30
2019-05-17T06:41:01.733Z,8.50
2019-05-17T06:43:29.296Z,7.43
2019-05-17T06:45:56.640Z,9.27
2019-05-17T06:48:23.942Z,7.67
2019-05-17T06:50:51.963Z,10.13
2019-05-17T06:53:22.011Z,7.50
2019-05-17T06:55:49.475Z,7.30
2019-05-17T06:58:16.887Z,9.70
2019-05-17T07:00:44.386Z,10.43
2019-05-17T07:03:11.777Z,8.10
2019-05-17T07:05:42.334Z,10.70
2019-05-17T07:08:10.821Z,8.37
2019-05-17T07:10:39.857Z,9.33
2019-05-17T07:13:10.740Z,7.83
2019-05-17T07:15:47.386Z,7.60
2019-05-17T07:18:10.288Z,7.53
2019-05-17T07:20:39.504Z,7.45
2019-05-17T07:23:07.387Z,8.00
2019-05-17T07:25:34.675Z,7.42
2019-05-17T07:28:02.057Z,6.25
2019-05-17T07:30:31.056Z,6.87
2019-05-17T07:33:00.495Z,6.30
2019-05-17T07:35:30.010Z,5.62
2019-05-17T07:37:59.518Z,6.00
2019-05-17T07:40:26.908Z,6.47
2019-05-17T07:43:06.885Z,6.30
2019-05-17T07:45:23.638Z,6.40
2019-05-17T07:47:50.950Z,5.50
2019-05-17T07:50:20.081Z,5.87
2019-05-17T07:52:49.853Z,6.15
2019-05-17T07:55:16.925Z,5.85
2019-05-17T07:57:44.293Z,5.55
2019-05-17T08:00:15.007Z,6.42
2019-05-17T08:02:42.451Z,6.45
2019-05-17T08:05:10.506Z,6.28
2019-05-17T08:07:40.252Z,6.78
2019-05-17T08:10:07.823Z,5.53
2019-05-17T08:12:35.159Z,5.85
2019-05-17T08:15:02.776Z,5.90
2019-05-17T08:17:30.524Z,5.35
2019-05-17T08:20:00.329Z,5.92
2019-05-17T08:22:29.254Z,6.85
2019-05-17T08:24:56.489Z,6.20
2019-05-17T08:27:23.894Z,5.55
2019-05-17T08:29:51.189Z,6.05
2019-05-17T08:32:20.904Z,6.40
2019-05-17T08:34:49.563Z,6.05
2019-05-17T08:37:20.305Z,5.72
2019-05-17T08:39:46.910Z,6.33
2019-05-17T08:42:15.157Z,6.10
2019-05-17T08:44:42.975Z,6.15
2019-05-17T08:47:10.359Z,5.47
2019-05-17T08:49:40.167Z,5.50
2019-05-17T08:52:07.104Z,5.97
2019-05-17T08:54:34.423Z,5.70
2019-05-17T08:57:01.763Z,5.42
2019-05-17T08:59:29.730Z,5.55
2019-05-17T09:01:57.157Z,4.92
2019-05-17T09:04:24.457Z,6.17
2019-05-17T09:06:51.799Z,5.10
2019-05-17T09:09:20.432Z,5.12
2019-05-17T09:11:50.045Z,4.60
2019-05-17T09:14:17.173Z,8.05
2019-05-17T09:16:44.483Z,4.95
2019-05-17T09:19:11.820Z,5.17
2019-05-17T09:21:39.711Z,4.58
2019-05-17T09:24:07.299Z,4.28
2019-05-17T09:26:34.635Z,4.60
2019-05-17T09:29:01.997Z,3.25
2019-05-17T09:31:29.891Z,3.83
2019-05-17T09:34:16.991Z,4.75
2019-05-17T09:36:44.317Z,4.37
2019-05-17T09:39:11.633Z,4.00
2019-05-17T09:41:39.728Z,4.05
2019-05-17T09:44:12.812Z,4.45
2019-05-17T09:46:36.571Z,4.03
2019-05-17T09:49:04.005Z,3.55
2019-05-17T09:51:31.397Z,5.20
2019-05-17T09:54:00.049Z,6.30
2019-05-17T09:56:29.906Z,3.67
2019-05-17T09:58:57.005Z,3.85
2019-05-17T10:01:24.311Z,4.12
2019-05-17T10:03:51.631Z,3.00
2019-05-17T10:06:20.044Z,3.50
2019-05-17T10:08:49.479Z,3.37
2019-05-17T10:11:16.906Z,3.00
2019-05-17T10:13:44.328Z,2.90
2019-05-17T10:16:11.778Z,3.58
2019-05-17T10:18:40.068Z,3.25
2019-05-17T10:21:07.649Z,3.08
2019-05-17T10:23:34.996Z,3.42
2019-05-17T10:26:02.452Z,2.70
2019-05-17T10:28:29.891Z,2.50
2019-05-17T10:30:57.313Z,2.58
2019-05-17T10:33:24.758Z,2.72
2019-05-17T10:35:52.069Z,2.05
2019-05-17T10:38:19.649Z,2.83
2019-05-17T10:40:50.140Z,2.77
2019-05-17T10:43:17.372Z,2.40
2019-05-17T10:45:44.788Z,3.95
2019-05-17T10:48:12.140Z,5.10
2019-05-17T10:50:42.436Z,3.40
2019-05-17T10:53:10.153Z,2.50
2019-05-17T10:55:39.760Z,2.25
2019-05-17T10:58:09.672Z,2.42
2019-05-17T11:00:36.400Z,2.40
2019-05-17T11:03:03.718Z,2.17
2019-05-17T11:05:31.016Z,1.80
2019-05-17T11:08:00.150Z,2.08
2019-05-17T11:10:27.495Z,2.25
2019-05-17T11:12:54.824Z,2.20
2019-05-17T11:15:23.266Z,3.00
2019-05-17T11:17:50.798Z,2.60
2019-05-17T11:20:18.331Z,1.87
2019-05-17T11:22:45.638Z,3.65
2019-05-17T11:25:13.241Z,2.27
2019-05-17T11:27:40.565Z,1.70
2019-05-17T11:30:08.161Z,1.85
2019-05-17T11:32:35.530Z,1.85
2019-05-17T11:35:02.891Z,1.60
2019-05-17T11:37:30.228Z,1.90
2019-05-17T11:39:57.698Z,2.65
2019-05-17T11:42:25.037Z,2.42
2019-05-17T11:44:52.357Z,1.70
2019-05-17T11:47:19.695Z,2.02
2019-05-17T11:49:47.004Z,1.75
2019-05-17T11:52:14.360Z,1.52
2019-05-17T11:54:41.641Z,1.50
2019-05-17T11:57:12.185Z,1.45
2019-05-17T11:59:38.239Z,1.62
2019-05-17T12:02:05.592Z,1.82
2019-05-17T12:04:32.916Z,2.12
2019-05-17T12:07:00.222Z,2.20
2019-05-17T12:09:36.855Z,1.70
2019-05-17T12:11:56.803Z,1.70
2019-05-17T12:14:24.158Z,2.75
2019-05-17T12:16:51.470Z,2.00
2019-05-17T12:19:18.785Z,1.60
2019-05-17T12:21:46.214Z,1.75
2019-05-17T12:24:13.504Z,1.80
2019-05-17T12:26:40.870Z,1.85
2019-05-17T12:29:08.197Z,1.70
2019-05-17T12:31:35.639Z,1.65
2019-05-17T12:34:03.135Z,1.57
2019-05-17T12:36:30.558Z,1.30
2019-05-17T12:38:57.875Z,2.00
2019-05-17T12:41:25.220Z,1.62
2019-05-17T12:43:52.651Z,1.50
2019-05-17T12:46:20.020Z,1.70
2019-05-17T12:48:49.221Z,1.35
2019-05-17T12:51:16.790Z,3.27
2019-05-17T12:53:44.147Z,1.60
2019-05-17T12:56:11.564Z,3.22
2019-05-17T12:58:38.858Z,1.75
2019-05-17T13:01:06.310Z,1.90
2019-05-17T13:03:33.711Z,1.50
2019-05-17T13:06:01.139Z,2.05
2019-05-17T13:08:28.467Z,1.92
2019-05-17T13:10:55.766Z,1.20
2019-05-17T13:13:23.111Z,3.85
2019-05-17T13:15:51.626Z,1.60
2019-05-17T13:18:18.948Z,1.40
2019-05-17T13:20:46.268Z,1.82
2019-05-17T13:23:13.707Z,1.70
2019-05-17T13:25:41.013Z,1.90
2019-05-17T13:28:08.341Z,1.40
2019-05-17T13:30:35.827Z,1.30
2019-05-17T13:33:03.247Z,1.30
2019-05-17T13:35:30.679Z,1.50
2019-05-17T13:37:58.083Z,1.22
2019-05-17T13:40:25.604Z,1.85
2019-05-17T13:42:53.053Z,1.15
2019-05-17T13:45:20.610Z,2.35
2019-05-17T13:47:48.030Z,1.30
2019-05-17T13:50:16.729Z,1.40
2019-05-17T13:52:44.081Z,1.35
2019-05-17T13:55:12.142Z,1.20
2019-05-17T13:57:39.563Z,1.27
2019-05-17T14:00:08.259Z,0.82
2019-05-17T14:02:35.711Z,1.37
2019-05-17T14:05:03.610Z,1.82
2019-05-17T14:07:31.090Z,1.30
2019-05-17T14:09:58.491Z,1.22
2019-05-17T14:12:26.104Z,1.07
2019-05-17T14:14:53.684Z,0.60
2019-05-17T14:17:21.020Z,1.45
2019-05-17T14:19:48.409Z,2.20
2019-05-17T14:22:15.929Z,1.02
2019-05-17T14:24:43.330Z,0.95
2019-05-17T14:27:10.836Z,0.90
2019-05-17T14:29:38.297Z,1.12
2019-05-17T14:32:05.818Z,1.42
2019-05-17T14:34:33.217Z,1.17
2019-05-17T14:37:00.564Z,1.00
2019-05-17T14:39:27.961Z,0.90
2019-05-17T14:41:55.269Z,1.62
2019-05-17T14:44:22.651Z,1.12
2019-05-17T14:46:49.975Z,1.72
2019-05-17T14:49:17.350Z,1.15
2019-05-17T14:51:44.775Z,1.25
2019-05-17T14:54:12.090Z,2.17
2019-05-17T14:56:41.006Z,1.07
2019-05-17T14:59:08.342Z,0.80
2019-05-17T15:01:35.679Z,2.05
2019-05-17T15:04:03.114Z,0.90
2019-05-17T15:06:30.609Z,1.00
2019-05-17T15:08:58.046Z,1.15
2019-05-17T15:11:25.399Z,1.25
2019-05-17T15:13:52.791Z,0.98
2019-05-17T15:16:20.269Z,1.12
2019-05-17T15:18:47.597Z,0.82
2019-05-17T15:21:15.042Z,1.52
2019-05-17T15:23:42.527Z,1.47
2019-05-17T15:26:09.864Z,1.45
2019-05-17T15:28:37.245Z,1.75
2019-05-17T15:31:04.571Z,1.40
2019-05-17T15:33:31.946Z,1.57
2019-05-17T15:35:59.376Z,0.80
2019-05-17T15:38:26.840Z,2.30
2019-05-17T15:40:54.268Z,1.27
2019-05-17T15:43:21.762Z,1.07
2019-05-17T15:45:50.476Z,2.05
2019-05-17T15:48:17.854Z,1.52
2019-05-17T15:50:45.166Z,1.30
2019-05-17T15:53:12.748Z,1.45
2019-05-17T15:55:40.070Z,1.22
2019-05-17T15:58:07.353Z,1.35
2019-05-17T16:00:34.856Z,1.05
2019-05-17T16:03:02.211Z,1.00
2019-05-17T16:05:29.530Z,2.47
2019-05-17T16:07:57.060Z,2.50
2019-05-17T16:10:24.344Z,2.08
2019-05-17T16:13:01.894Z,0.90
2019-05-17T16:15:20.992Z,1.12
2019-05-17T16:17:48.320Z,1.60
2019-05-17T16:20:16.898Z,1.10
2019-05-17T16:22:44.540Z,1.22
2019-05-17T16:25:12.182Z,1.37
2019-05-17T16:27:39.466Z,0.90
2019-05-17T16:30:07.479Z,0.80
2019-05-17T16:32:35.107Z,1.10
2019-05-17T16:35:02.630Z,1.10
2019-05-17T16:37:30.127Z,0.80
2019-05-17T16:39:57.457Z,0.98
2019-05-17T16:42:24.810Z,1.45
2019-05-17T16:44:52.120Z,1.87
2019-05-17T16:47:19.483Z,0.88
2019-05-17T16:49:46.770Z,1.07
2019-05-17T16:52:14.121Z,1.20
2019-05-17T16:54:41.486Z,1.30
2019-05-17T16:57:08.918Z,0.90
2019-05-17T16:59:36.240Z,1.15
2019-05-17T17:02:03.913Z,1.22
2019-05-17T17:04:31.245Z,1.20
2019-05-17T17:06:58.619Z,1.32
2019-05-17T17:09:26.043Z,0.85
2019-05-17T17:11:53.367Z,1.47
2019-05-17T17:14:20.572Z,2.37
2019-05-17T17:16:47.901Z,1.20
2019-05-17T17:19:15.307Z,1.15
2019-05-17T17:21:42.612Z,0.82
2019-05-17T17:24:09.953Z,2.37
2019-05-17T17:26:37.326Z,1.85
2019-05-17T17:29:05.229Z,0.93
2019-05-17T17:31:32.561Z,1.27
2019-05-17T17:33:59.888Z,1.07
2019-05-17T17:36:27.205Z,1.20
2019-05-17T17:38:54.583Z,0.98
2019-05-17T17:41:21.975Z,0.82
2019-05-17T17:43:58.238Z,1.35
2019-05-17T17:46:18.527Z,1.20
2019-05-17T17:48:46.045Z,3.02
2019-05-17T17:51:13.479Z,0.90
2019-05-17T17:53:40.919Z,1.30
2019-05-17T17:56:08.215Z,2.90
2019-05-17T17:58:35.553Z,1.20
2019-05-17T18:01:02.837Z,1.35
2019-05-17T18:03:30.244Z,1.17
2019-05-17T18:05:57.668Z,0.78
2019-05-17T18:08:25.014Z,1.42
2019-05-17T18:10:52.325Z,0.93
2019-05-17T18:13:19.673Z,2.40
2019-05-17T18:15:50.253Z,0.88
2019-05-17T18:18:16.327Z,3.83
2019-05-17T18:20:43.730Z,1.10
2019-05-17T18:23:11.312Z,0.80
2019-05-17T18:25:38.816Z,1.10
2019-05-17T18:28:06.892Z,1.50
2019-05-17T18:30:34.409Z,1.00
2019-05-17T18:33:01.866Z,1.15
2019-05-17T18:35:29.229Z,1.27
2019-05-17T18:37:56.708Z,1.37
2019-05-17T18:40:24.021Z,1.17
2019-05-17T18:42:51.388Z,0.98
2019-05-17T18:45:18.812Z,1.37
2019-05-17T18:47:46.257Z,1.55
2019-05-17T18:50:15.551Z,1.42
2019-05-17T18:52:42.887Z,1.32
2019-05-17T18:55:10.557Z,1.20
2019-05-17T18:59:08.516Z,1.37
2019-05-17T19:01:35.812Z,1.47
2019-05-17T19:04:03.319Z,4.62
2019-05-17T19:06:30.695Z,1.55
2019-05-17T19:08:58.040Z,2.12
2019-05-17T19:11:25.393Z,1.20
2019-05-17T19:13:52.660Z,1.30
2019-05-17T19:16:20.004Z,1.40
2019-05-17T19:18:47.325Z,1.40
2019-05-17T19:21:14.609Z,1.32
2019-05-17T19:23:41.909Z,1.60
2019-05-17T19:26:09.219Z,2.55
2019-05-17T19:28:36.676Z,1.22
2019-05-17T19:31:04.029Z,2.37
2019-05-17T19:33:31.309Z,1.40
2019-05-17T19:35:58.632Z,3.90
2019-05-17T19:38:25.972Z,2.55
2019-05-17T19:40:53.381Z,3.40
2019-05-17T19:43:20.738Z,1.30
2019-05-17T19:45:48.152Z,1.55
2019-05-17T19:48:15.505Z,1.77
2019-05-17T19:50:42.819Z,1.60
2019-05-17T19:53:10.187Z,1.82
2019-05-17T19:55:37.494Z,1.50
2019-05-17T19:58:04.964Z,2.55
2019-05-17T20:00:32.420Z,1.70
2019-05-17T20:02:59.881Z,1.40
2019-05-17T20:05:27.268Z,1.45
2019-05-17T20:07:54.645Z,1.32
2019-05-17T20:10:22.129Z,1.30
2019-05-17T20:12:49.557Z,1.55
2019-05-17T20:15:36.348Z,2.33
2019-05-17T20:18:03.740Z,1.60
2019-05-17T20:20:31.229Z,3.35
2019-05-17T20:23:00.424Z,2.72
2019-05-17T20:25:27.844Z,3.40
2019-05-17T20:27:55.233Z,1.95
2019-05-17T20:30:22.658Z,2.62
2019-05-17T20:32:50.152Z,1.95
2019-05-17T20:35:18.119Z,2.30
2019-05-17T20:37:46.645Z,2.67
2019-05-17T20:40:15.252Z,1.90
2019-05-17T20:42:42.747Z,2.08
2019-05-17T20:45:10.969Z,2.00
2019-05-17T20:47:38.297Z,2.27
2019-05-17T20:50:06.921Z,2.00
2019-05-17T20:52:34.383Z,3.05
2019-05-17T20:55:01.920Z,2.75
2019-05-17T20:57:29.520Z,5.03
2019-05-17T20:59:56.852Z,2.90
2019-05-17T21:02:25.273Z,2.75
2019-05-17T21:04:52.614Z,3.70
2019-05-17T21:07:21.162Z,3.20
2019-05-17T21:09:48.796Z,3.20
2019-05-17T21:12:16.123Z,3.25
2019-05-17T21:14:43.455Z,2.92
2019-05-17T21:17:10.847Z,3.00
2019-05-17T21:19:38.224Z,2.77
2019-05-17T21:22:05.566Z,6.03
2019-05-17T21:24:32.873Z,5.12
2019-05-17T21:27:00.209Z,3.77
2019-05-17T21:29:27.499Z,3.70
2019-05-17T21:31:55.119Z,3.72
2019-05-17T21:34:22.401Z,3.27
2019-05-17T21:36:49.758Z,3.55
2019-05-17T21:39:17.051Z,4.75
2019-05-17T21:41:44.400Z,3.00
2019-05-17T21:44:11.831Z,3.37
2019-05-17T21:46:39.214Z,3.30
2019-05-17T21:49:06.541Z,3.27
2019-05-17T21:51:33.886Z,3.17
2019-05-17T21:54:01.223Z,3.83
2019-05-17T21:56:28.556Z,3.00
2019-05-17T21:58:55.885Z,4.35
2019-05-17T22:01:26.516Z,3.30
2019-05-17T22:03:53.963Z,3.17
2019-05-17T22:06:21.576Z,3.40
2019-05-17T22:08:49.008Z,3.30
2019-05-17T22:11:16.550Z,4.42
2019-05-17T22:13:43.913Z,3.42
2019-05-17T22:16:19.647Z,3.50
2019-05-17T22:18:40.449Z,3.37
2019-05-17T22:21:09.870Z,3.08
2019-05-17T22:23:37.209Z,2.80
2019-05-17T22:26:04.533Z,3.60
2019-05-17T22:28:33.706Z,3.20
2019-05-17T22:31:01.003Z,3.83
2019-05-17T22:33:28.728Z,3.17
2019-05-17T22:35:56.151Z,3.17
2019-05-17T22:38:23.451Z,2.83
2019-05-17T22:40:50.779Z,4.47
2019-05-17T22:43:18.106Z,4.55
2019-05-17T22:45:45.480Z,3.37
2019-05-17T22:48:12.753Z,3.67
2019-05-17T22:50:40.071Z,2.95
2019-05-17T22:53:07.372Z,3.22
2019-05-17T22:55:34.806Z,3.55
2019-05-17T22:58:02.359Z,3.02
2019-05-17T23:00:31.535Z,3.90
2019-05-17T23:02:58.905Z,2.95
2019-05-17T23:05:26.624Z,3.12
2019-05-17T23:07:55.330Z,3.15
2019-05-17T23:10:24.478Z,3.33
2019-05-17T23:12:51.842Z,3.00
2019-05-17T23:15:19.129Z,2.50
2019-05-17T23:17:46.571Z,2.70
2019-05-17T23:20:13.983Z,3.90
2019-05-17T23:22:41.334Z,4.22
2019-05-17T23:25:09.079Z,3.62
2019-05-17T23:27:36.389Z,6.78
2019-05-17T23:30:04.233Z,2.60
2019-05-17T23:32:31.538Z,2.30
2019-05-17T23:34:58.863Z,2.62
2019-05-17T23:37:26.186Z,2.35
2019-05-17T23:39:53.526Z,2.85
2019-05-17T23:42:20.841Z,2.27
2019-05-17T23:44:48.268Z,2.45
2019-05-17T23:47:15.709Z,3.75
2019-05-17T23:49:44.130Z,2.10
2019-05-17T23:52:11.476Z,3.10
2019-05-17T23:54:38.813Z,2.62
2019-05-17T23:57:06.189Z,2.50
2019-05-17T23:59:33.531Z,2.43
